Погода Барра-ду-Пираина 2 недели

Рио-де-Жанейро, Бразилия

22 июля-04 августа
  • 22июля
    Сегодня
    +12°
    +26°
    Ясно и безоблачно
    ВремяПогодаТемператураВлажностьДавлениеВетер, м/сВероятность осадков
    00:00Ясно и безоблачно+14°C94 %768 мм1.0 м/с5 %
    03:00Ясно и безоблачно+13°C90 %767 мм2.2 м/с5 %
    06:00Ясно и безоблачно+12°C89 %767 мм2.2 м/с5 %
    09:00Ясно и безоблачно+17°C73 %768 мм1.2 м/с5 %
    12:00Ясно и безоблачно+25°C47 %767 мм1.3 м/с5 %
    15:00Ясно и безоблачно+24°C47 %766 мм3.5 м/с5 %
    18:00Ясно и безоблачно+18°C68 %767 мм2.4 м/с5 %
    21:00Ясно и безоблачно+17°C82 %768 мм1.1 м/с5 %
  • 23июля
    Вторник
    +12°
    +24°
    Ясно и безоблачно
    ВремяПогодаТемператураВлажностьДавлениеВетер, м/сВероятность осадков
    00:00Ясно и безоблачно+14°C82 %768 мм0.9 м/с5 %
    03:00Практически безоблачно+14°C83 %767 мм0.2 м/с5 %
    06:00Практически безоблачно+12°C88 %768 мм1.1 м/с5 %
    09:00Ясно и безоблачно+17°C76 %770 мм0.7 м/с5 %
    12:00Ясно и безоблачно+23°C53 %769 мм1.6 м/с5 %
    15:00Ясно и безоблачно+23°C50 %768 мм2.8 м/с5 %
    18:00Ясно и безоблачно+16°C78 %768 мм1.7 м/с5 %
    21:00Ясно и безоблачно+14°C91 %769 мм0.4 м/с5 %
  • 24июля
    Среда
    +13°
    +25°
    Ясно и безоблачно
    ВремяПогодаТемператураВлажностьДавлениеВетер, м/сВероятность осадков
    00:00Практически безоблачно+13°C94 %769 мм0.9 м/с5 %
    03:00Небольшая облачность+12°C97 %769 мм1.1 м/с5 %
    06:00Небольшая облачность+12°C95 %769 мм1.6 м/с5 %
    09:00Ясно и безоблачно+17°C79 %770 мм1.6 м/с5 %
    12:00Ясно и безоблачно+24°C54 %769 мм2.9 м/с5 %
    15:00Ясно и безоблачно+25°C44 %767 мм2.5 м/с5 %
    18:00Ясно и безоблачно+19°C71 %768 мм1.9 м/с5 %
    21:00Ясно и безоблачно+16°C84 %769 мм1.2 м/с5 %
  • 25июля
    Четверг
    +14°
    +28°
    Ясно и безоблачно
    ВремяПогодаТемператураВлажностьДавлениеВетер, м/сВероятность осадков
    00:00Практически безоблачно+14°C81 %768 мм2.0 м/с5 %
    03:00Небольшая облачность+15°C80 %767 мм3.6 м/с5 %
    06:00Небольшая облачность+14°C90 %767 мм3.6 м/с5 %
    09:00Ясно и безоблачно+19°C74 %768 мм4.0 м/с5 %
    12:00Ясно и безоблачно+25°C53 %766 мм3.5 м/с5 %
    15:00Ясно и безоблачно+27°C43 %764 мм1.1 м/с5 %
    18:00Ясно и безоблачно+22°C65 %764 мм2.5 м/с5 %
    21:00Ясно и безоблачно+19°C69 %765 мм2.6 м/с5 %
  • 26июля
    Пятница
    +15°
    +28°
    Облачно с прояснениями
    ВремяПогодаТемператураВлажностьДавлениеВетер, м/сВероятность осадков
    00:00Ясно и безоблачно+18°C70 %765 мм3.3 м/с5 %
    03:00Ясно и безоблачно+16°C76 %764 мм2.8 м/с5 %
    06:00Ясно и безоблачно+14°C82 %765 мм2.4 м/с5 %
    09:00Ясно и безоблачно+20°C63 %766 мм2.3 м/с5 %
    12:00Ясно и безоблачно+27°C43 %765 мм1.6 м/с5 %
    15:00Облачно с прояснениями+28°C35 %763 мм0.8 м/с5 %
    18:00Небольшая облачность+22°C59 %764 мм1.7 м/с5 %
    21:00Облачно с прояснениями+20°C67 %765 мм1.4 м/с5 %
Мы используем cookies
Соглашаюсь